Syracuse, MO (65354)

9:05 PM CDT on August 02, 2015 (GMT -0500)
N Hughes Ave | | Change Station
CLOSE
Current Station
Personal Weather Station
Location: Stover, MO
Elevation: 1089 ft
Nearby Weather Stations

Elev 1089 ft 38.44 °N, 92.99 °W | Updated 15 minutes ago

Clear
Clear
81.5 °F
Feels Like 85 °F
N
0.0
Wind Variable Wind from South

Today
High -- | Low -- °F
--% Chance of Precip.
Yesterday
High -- | Low -- °F
Precip. -- in
6:13 AM 8:21 PM
Waning Gibbous, 90% visible
Pressure 29.84 in
Visibility 10.0 miles
Clouds Clear
Heat Index 85 °F
Dew Point 70 °F
Humidity 69%
Rainfall 0.00 in
Snow Depth Not available.
UV 0 out of 12
Pollen 7.50 out of 12
Air Quality Not available.
Flu Activity Not available.
METAR KDMO 030153Z AUTO 20006KT 10SM CLR 27/19 A2987 RMK AO2 SLP105 T02720194 $

More Conditions Fewer Conditions

Pressure 29.84 in
Visibility 10.0 miles
Clouds Clear
Heat Index 85 °F
Dew Point 70 °F
Humidity 69%
Rainfall 0.00 in
Snow Depth Not available.
UV 0 out of 12
Pollen 7.50 out of 12
Air Quality Not available.
Flu Activity Not available.
METAR KDMO 030153Z AUTO 20006KT 10SM CLR 27/19 A2987 RMK AO2 SLP105 T02720194 $

More Conditions Fewer Conditions

10-Day Weather Forecast

×

Almanac

Astronomy

Aug. 02, 2015 Rise Set
Actual Time
Civil Twilight
Nautical Twilight
Astronomical Twilight
Moon
Length of Visible Light
Length of Day
Tomorrow will be .
, % of the Moon is Illuminated

Today's Extremes

State Highs State Lows

Community

WunderPhotos

Upload Photos

1,843,516 photos uploaded!

WunderBlogs® & News

Nearby

Air Quality

  Air Quality AQ Index Pollutant
Not available.

Snow Depth

Station Depth Elevation

Earthquake Activity

City Distance Mag. Time & Date
Minimum magnitude displayed is 2.5.

Coastal Water Temperatures

Place Temperature

Stations

Nearby Weather Stations

Station Location Temp. Windchill Dew Point Humidity Wind Precip. Elev Updated Type